world map with STI marked

STI - Airport

This information may not be accurate or current and is not valid for navigation or flight planning. No warranty of fitness for any purpose is made or implied.

flag of Dominican Republic

Donate via PayPal

Additional information is available on the NEW Great Circle Mapper

Location
City:  Santiago de los Caballeros, Santiago, Dominican Republic
Name:Cibao International Airport
ICAO / IATA:MDST / STI

Details
Type:Airport (Aerodrome, Airfield)
Use:Public/Civil
Latitude:19°24'22"N (19.406092)
Longitude:70°36'17"W (-70.604688)
Datum:WGS 1984
Elevation:565 ft (172 m)
Runways:1
Longest:8595 × 148 ft (2620 × 45 m)

Time
Timezone:UTC+30:08 (DST+32:08)
Local Time:

Weather
METAR:MDST  041400Z 10007KT 9999 FEW018 24/18 Q1016 NOSIG
TAF:MDST  (expired)

Related Locations
Nearby:
Farthest:EXM: 12089 mi / 19455 km
Exmouth Gulf, WA, AU

Find:

   beyond  
but within

Other Information
Maps:
Links:
Sources:

  


 


Great Circle Mapper   Great Circle Mapper
Great Circle Mapper FAQ   Great Circle Mapper FAQ
  Karl's Home Page
KLSē   KLSē Home
   GC on Facebook
Airlines of the World   Airlines of the World
Donate via PayPal


Copyright © 2004-2019, Karl L. Swartz. All rights reserved.
All trademarks mentioned herein belong to their respective owners.

Please see credits for attribution and copyright information.

Karl Swartz <karl@kls2.com>
  Powered by FreeBSD
Valid HTML 4.01!
Labeled with ICRA
hCard Microformat
Geo Microformat